Time;durP1;ratioP1;P1;durP2;ratioP2;P2;SDS_P1;SDS_P2;PMS_P1;PMS_P2;Temp;Humidity;BMP_temperature;BMP_pressure;BME280_temperature;BME280_humidity;BME280_pressure;Samples;Min_cycle;Max_cycle;Signal;HPM_P1;HPM_P2
2022/01/04 00:00:07;;;;;;;;;21.50;21.50;;;;;5.02;93.34;99773.03;6215848;23;11601;-72
2022/01/04 00:03:03;;;;;;;;;30.50;29.75;;;;;4.93;93.91;99777.66;6215067;23;11616;-74
2022/01/04 00:05:58;;;;;;;;;28.75;28.25;;;;;4.97;93.65;99773.97;6215860;23;11516;-72
2022/01/04 00:09:01;;;;;;;;;27.00;26.25;;;;;4.85;94.06;99776.50;6214753;23;11483;-73
2022/01/04 00:13:20;;;;;;;;;26.25;24.00;;;;;4.87;94.12;99782.47;6194790;23;11529;-72
2022/01/04 00:15:12;;;;;;;;;27.00;27.00;;;;;4.91;93.88;99785.41;6214848;23;11486;-72
2022/01/04 00:18:07;;;;;;;;;25.00;25.00;;;;;4.91;94.00;99790.88;6213916;23;11505;-73
2022/01/04 00:21:03;;;;;;;;;21.25;21.25;;;;;5.01;93.69;99790.59;6214491;23;11540;-73
2022/01/04 00:23:59;;;;;;;;;21.00;19.50;;;;;4.91;94.29;99793.63;6214432;23;12191;-73
2022/01/04 00:26:55;;;;;;;;;22.25;22.25;;;;;4.93;94.39;99803.13;6214705;23;11486;-73
2022/01/04 00:29:50;;;;;;;;;18.00;18.00;;;;;4.96;94.03;99799.75;6215558;23;11496;-72
2022/01/04 00:32:46;;;;;;;;;24.75;24.50;;;;;4.89;94.24;99804.06;6214593;23;11501;-72
2022/01/04 00:35:43;;;;;;;;;31.25;28.75;;;;;4.94;94.17;99793.78;6214558;23;11569;-72
2022/01/04 00:38:39;;;;;;;;;22.75;22.75;;;;;4.90;94.06;99797.44;6214541;23;11482;-72
2022/01/04 00:41:34;;;;;;;;;21.75;21.75;;;;;4.91;94.21;99797.16;6194319;23;11474;-73
2022/01/04 00:44:30;;;;;;;;;20.00;18.75;;;;;4.88;94.45;99805.19;6214558;23;11491;-73
2022/01/04 00:47:39;;;;;;;;;19.50;15.50;;;;;4.98;94.37;99815.88;6214558;23;11495;-72
2022/01/04 00:50:36;;;;;;;;;26.50;23.50;;;;;4.92;94.17;99819.88;6214213;23;11483;-72
2022/01/04 00:53:32;;;;;;;;;21.25;21.25;;;;;4.94;94.22;99812.16;6214425;23;11495;-72
2022/01/04 00:56:28;;;;;;;;;23.25;20.75;;;;;4.99;94.17;99812.84;6214393;23;11480;-72
2022/01/04 00:59:24;;;;;;;;;22.00;22.00;;;;;4.95;94.03;99814.56;6213865;23;12243;-72
2022/01/04 01:02:19;;;;;;;;;19.25;18.00;;;;;5.00;94.16;99813.66;6194689;23;11521;-72
2022/01/04 01:05:16;;;;;;;;;19.25;19.25;;;;;4.96;94.12;99804.41;6213314;23;11472;-72
2022/01/04 01:08:11;;;;;;;;;18.25;17.25;;;;;5.01;94.00;99810.59;6214397;23;11486;-72
2022/01/04 01:11:08;;;;;;;;;21.75;21.75;;;;;5.01;94.03;99810.59;6212706;23;11495;-72
2022/01/04 01:14:04;;;;;;;;;23.00;21.00;;;;;4.86;94.49;99808.25;6213614;23;11497;-72
2022/01/04 01:16:59;;;;;;;;;22.25;22.25;;;;;4.98;94.37;99818.59;6214065;23;11574;-72
2022/01/04 01:19:55;;;;;;;;;23.00;22.25;;;;;5.01;94.19;99827.03;6214041;23;11580;-72
2022/01/04 01:22:50;;;;;;;;;23.25;23.25;;;;;5.02;94.37;99827.84;6214385;23;11589;-73
2022/01/04 01:25:47;;;;;;;;;13.75;12.25;;;;;5.04;94.72;99831.06;6213907;23;11495;-72
2022/01/04 01:28:42;;;;;;;;;20.75;19.75;;;;;5.05;94.53;99827.19;6215039;23;11533;-72
2022/01/04 01:31:38;;;;;;;;;17.75;16.75;;;;;4.96;94.73;99824.41;6214018;23;11540;-72
2022/01/04 01:34:34;;;;;;;;;18.50;18.50;;;;;4.99;95.01;99833.94;6214173;23;11497;-72
2022/01/04 01:37:29;;;;;;;;;14.00;14.00;;;;;4.99;95.15;99842.19;6213791;23;12184;-72
2022/01/04 01:40:25;;;;;;;;;22.75;22.75;;;;;5.11;94.92;99847.06;6213512;23;11484;-73
2022/01/04 01:43:24;;;;;;;;;18.00;17.00;;;;;5.10;94.61;99838.03;6213658;23;11540;-73
2022/01/04 01:46:19;;;;;;;;;16.75;16.75;;;;;5.03;94.57;99843.16;6193915;23;11472;-72
2022/01/04 01:49:15;;;;;;;;;19.00;19.00;;;;;5.08;94.19;99842.22;6213648;23;11502;-73
2022/01/04 01:52:11;;;;;;;;;20.75;20.25;;;;;5.07;93.92;99846.09;6194160;23;11529;-72
2022/01/04 01:55:08;;;;;;;;;21.25;19.75;;;;;5.10;94.13;99850.91;6212940;23;11478;-72
2022/01/04 01:58:05;;;;;;;;;18.00;17.75;;;;;5.01;94.75;99848.94;6213913;23;11596;-72
2022/01/04 02:01:01;;;;;;;;;17.50;17.50;;;;;5.08;94.15;99850.44;6213808;23;11499;-73
2022/01/04 02:03:56;;;;;;;;;12.50;12.50;;;;;5.10;93.85;99859.94;6214934;23;11495;-73
2022/01/04 02:06:52;;;;;;;;;14.75;14.50;;;;;5.08;93.89;99864.94;6212542;23;11466;-72
2022/01/04 02:09:59;;;;;;;;;18.00;18.00;;;;;5.08;93.28;99864.94;6213327;23;11580;-72
2022/01/04 02:12:55;;;;;;;;;18.25;18.25;;;;;5.05;93.81;99865.56;6213384;23;11493;-72
2022/01/04 02:15:54;;;;;;;;;20.50;20.00;;;;;5.03;93.96;99874.09;6213702;23;11491;-72
2022/01/04 02:18:50;;;;;;;;;19.25;19.25;;;;;5.02;93.87;99880.69;6212588;23;11501;-72
2022/01/04 02:21:45;;;;;;;;;15.75;15.75;;;;;5.07;93.92;99881.72;6213589;23;11481;-73
2022/01/04 02:24:41;;;;;;;;;17.50;17.50;;;;;5.03;94.15;99881.50;6213775;23;11490;-72
2022/01/04 02:27:39;;;;;;;;;20.00;20.00;;;;;5.10;94.03;99887.34;6213486;23;11488;-72
2022/01/04 02:30:34;;;;;;;;;21.00;21.00;;;;;5.07;93.62;99884.44;6213301;23;11561;-72
2022/01/04 02:33:30;;;;;;;;;20.50;17.50;;;;;5.06;94.14;99888.28;6212532;23;11519;-72
2022/01/04 02:36:25;;;;;;;;;16.00;16.00;;;;;5.01;94.39;99895.53;6213551;23;11525;-72
2022/01/04 02:39:21;;;;;;;;;18.50;18.25;;;;;4.98;94.33;99890.69;6213587;23;11464;-72
2022/01/04 02:42:16;;;;;;;;;18.75;18.75;;;;;4.96;94.29;99890.16;6213334;23;11590;-73
2022/01/04 02:45:12;;;;;;;;;19.25;19.25;;;;;4.96;94.34;99897.59;6213614;23;11605;-72
2022/01/04 02:48:08;;;;;;;;;18.00;18.00;;;;;4.96;94.57;99897.59;6213507;23;11571;-72
2022/01/04 02:51:03;;;;;;;;;18.00;17.00;;;;;4.95;94.91;99901.44;6213122;23;11521;-72
2022/01/04 02:53:58;;;;;;;;;21.50;21.50;;;;;4.87;95.20;99902.19;6193553;23;11487;-72
2022/01/04 02:56:54;;;;;;;;;18.00;18.00;;;;;4.91;95.34;99911.44;6212498;23;11522;-72
2022/01/04 02:59:50;;;;;;;;;16.50;16.00;;;;;4.86;95.34;99915.09;6214770;23;12250;-72
2022/01/04 03:02:45;;;;;;;;;22.00;21.25;;;;;4.82;95.61;99913.28;6215287;23;11562;-73
2022/01/04 03:05:41;;;;;;;;;18.50;18.50;;;;;4.76;96.05;99914.53;6215560;23;11508;-72
2022/01/04 03:08:36;;;;;;;;;16.75;16.50;;;;;4.67;96.29;99920.72;6215512;23;11475;-73
2022/01/04 03:11:33;;;;;;;;;22.50;22.00;;;;;4.83;95.83;99920.38;6214334;23;12199;-72
2022/01/04 03:14:29;;;;;;;;;21.75;21.75;;;;;4.82;96.38;99922.31;6196923;23;11476;-72
2022/01/04 03:17:24;;;;;;;;;27.50;24.50;;;;;4.71;95.78;99929.16;6215506;23;11500;-72
2022/01/04 03:20:20;;;;;;;;;19.25;17.50;;;;;4.68;96.28;99935.28;6214274;23;11627;-73
2022/01/04 03:23:16;;;;;;;;;19.50;18.75;;;;;4.64;96.83;99937.00;6216196;23;11488;-73
2022/01/04 03:26:11;;;;;;;;;23.50;23.50;;;;;4.63;97.11;99938.13;6215280;23;11488;-72
2022/01/04 03:29:09;;;;;;;;;26.00;24.00;;;;;4.54;97.69;99946.25;6214784;23;12241;-72
2022/01/04 03:32:05;;;;;;;;;25.25;24.25;;;;;4.50;97.99;99947.97;6194915;23;11515;-72
2022/01/04 03:35:01;;;;;;;;;24.25;23.25;;;;;4.47;98.30;99957.63;6214843;23;11640;-72
2022/01/04 03:37:56;;;;;;;;;21.75;20.50;;;;;4.48;98.16;99950.22;6215199;23;11580;-72
2022/01/04 03:40:52;;;;;;;;;25.75;24.75;;;;;4.43;98.41;99958.53;6214579;23;11549;-72
2022/01/04 03:43:49;;;;;;;;;21.75;21.00;;;;;4.34;98.51;99958.47;6215106;23;11490;-72
2022/01/04 03:46:51;;;;;;;;;35.00;32.50;;;;;4.39;98.11;99963.03;6215352;23;11522;-72
2022/01/04 03:49:47;;;;;;;;;22.00;22.00;;;;;4.32;98.26;99965.38;6214964;23;12237;-72
2022/01/04 03:52:42;;;;;;;;;29.25;25.75;;;;;4.31;98.57;99974.69;6214553;23;11512;-72
2022/01/04 03:55:38;;;;;;;;;32.75;29.25;;;;;4.30;98.64;99968.41;6214025;23;11509;-72
2022/01/04 03:58:33;;;;;;;;;39.50;37.50;;;;;4.32;98.38;99973.59;6215029;23;11542;-72
2022/01/04 04:01:29;;;;;;;;;31.50;28.25;;;;;4.32;98.38;99985.34;6214450;23;11505;-72
2022/01/04 04:04:25;;;;;;;;;23.50;23.50;;;;;4.25;98.29;99982.19;6214822;23;11587;-71
2022/01/04 04:07:21;;;;;;;;;20.25;20.25;;;;;4.34;98.14;99990.50;6215051;23;11542;-71
2022/01/04 04:10:16;;;;;;;;;28.25;28.25;;;;;4.29;98.09;99985.13;6214424;23;11484;-71
2022/01/04 04:13:12;;;;;;;;;21.00;21.00;;;;;4.27;98.32;99998.31;6214633;23;11535;-72
2022/01/04 04:16:07;;;;;;;;;25.00;24.75;;;;;4.27;98.89;99999.13;6214681;23;11487;-72
2022/01/04 04:19:03;;;;;;;;;23.75;23.75;;;;;4.31;98.54;100010.28;6214587;23;11627;-72
2022/01/04 04:21:58;;;;;;;;;24.50;24.50;;;;;4.17;98.24;100023.97;6213392;23;11487;-72
2022/01/04 04:24:54;;;;;;;;;21.50;21.50;;;;;4.31;98.63;100021.25;6214663;23;12243;-72
2022/01/04 04:27:49;;;;;;;;;29.75;25.75;;;;;4.25;98.41;100031.47;6214393;23;11531;-72
2022/01/04 04:30:45;;;;;;;;;19.75;19.00;;;;;4.23;98.59;100021.94;6214470;23;11495;-72
2022/01/04 04:33:40;;;;;;;;;22.50;22.50;;;;;4.14;99.25;100032.78;6214675;23;11552;-72
2022/01/04 04:36:36;;;;;;;;;31.75;29.75;;;;;4.12;98.84;100037.75;6214621;23;11491;-72
2022/01/04 04:39:32;;;;;;;;;22.75;20.25;;;;;4.17;99.07;100041.19;6214376;23;11496;-72
2022/01/04 04:42:27;;;;;;;;;22.25;22.25;;;;;4.17;99.52;100051.34;6214755;23;11602;-71
2022/01/04 04:45:23;;;;;;;;;18.75;18.75;;;;;4.24;99.25;100057.22;6214459;23;11550;-72
2022/01/04 04:48:19;;;;;;;;;26.50;25.50;;;;;4.22;98.96;100056.72;6216344;23;11481;-72
2022/01/04 04:51:14;;;;;;;;;24.50;23.75;;;;;4.23;99.02;100060.28;6194480;23;12238;-72
2022/01/04 04:54:10;;;;;;;;;21.75;21.50;;;;;4.18;99.30;100067.44;6215392;23;11583;-72
2022/01/04 04:57:05;;;;;;;;;23.25;23.25;;;;;4.18;99.08;100066.66;6214538;23;11577;-71
2022/01/04 05:00:01;;;;;;;;;23.00;23.00;;;;;4.14;99.39;100071.94;6213280;23;11596;-72
2022/01/04 05:02:57;;;;;;;;;36.00;35.25;;;;;4.10;99.54;100070.09;6214218;23;11501;-71
2022/01/04 05:05:52;;;;;;;;;15.25;15.25;;;;;4.08;99.89;100077.78;6214302;23;11526;-71
2022/01/04 05:08:48;;;;;;;;;17.50;16.25;;;;;4.10;99.42;100087.31;6214397;23;11492;-71
2022/01/04 05:11:44;;;;;;;;;20.50;18.75;;;;;4.11;99.39;100085.38;6213862;23;11510;-71
2022/01/04 05:14:45;;;;;;;;;23.25;21.00;;;;;4.10;99.53;100094.72;6213990;23;11492;-71
2022/01/04 05:17:40;;;;;;;;;24.25;23.00;;;;;4.06;99.61;100099.97;6212919;23;11554;-71
2022/01/04 05:20:36;;;;;;;;;19.75;19.75;;;;;4.13;99.77;100105.03;6213315;23;11486;-71
2022/01/04 05:23:32;;;;;;;;;20.00;20.00;;;;;4.14;99.71;100115.72;6213811;23;11498;-71
2022/01/04 05:26:27;;;;;;;;;14.00;14.00;;;;;4.11;99.99;100105.34;6214129;23;11467;-70
2022/01/04 05:29:23;;;;;;;;;17.75;17.75;;;;;4.16;99.49;100104.47;6213837;23;11647;-70
2022/01/04 05:32:18;;;;;;;;;17.25;16.75;;;;;4.16;99.24;100113.47;6213987;23;11519;-69
2022/01/04 05:35:14;;;;;;;;;20.75;20.75;;;;;4.04;99.25;100115.88;6215021;23;10964;-71
2022/01/04 05:38:09;;;;;;;;;21.50;18.50;;;;;4.01;99.06;100118.41;6213915;23;11474;-71
2022/01/04 05:41:05;;;;;;;;;20.25;20.25;;;;;3.94;99.07;100123.47;6213467;23;11521;-71
2022/01/04 05:44:01;;;;;;;;;23.75;22.50;;;;;3.93;99.50;100130.88;6214068;23;11580;-71
2022/01/04 05:46:56;;;;;;;;;23.25;23.00;;;;;3.89;99.38;100135.28;6214082;23;11546;-71
2022/01/04 05:49:52;;;;;;;;;6.50;6.50;;;;;3.75;99.26;100142.66;6213856;23;11511;-71
2022/01/04 05:52:47;;;;;;;;;24.25;24.25;;;;;3.84;99.37;100140.88;6213445;23;10971;-71
2022/01/04 05:55:43;;;;;;;;;24.25;19.00;;;;;3.88;99.78;100155.56;6213811;23;11710;-71
2022/01/04 05:58:39;;;;;;;;;19.50;19.50;;;;;3.79;99.81;100157.34;6212723;23;12239;-71
2022/01/04 06:01:34;;;;;;;;;26.25;25.00;;;;;3.80;99.81;100153.50;6213883;23;11523;-71
2022/01/04 06:04:30;;;;;;;;;24.00;23.25;;;;;3.77;99.62;100159.59;6195053;23;11495;-72
2022/01/04 06:07:25;;;;;;;;;27.00;25.50;;;;;3.83;100.00;100161.09;6213886;23;12240;-71
2022/01/04 06:10:21;;;;;;;;;24.75;23.75;;;;;3.92;100.00;100161.25;6193887;23;11561;-71
2022/01/04 06:16:32;;;;;;;;;26.00;24.50;;;;;4.09;100.00;100177.94;6213717;23;11570;-71
2022/01/04 06:19:27;;;;;;;;;26.00;26.00;;;;;4.03;100.00;100177.19;6213550;23;11516;-71
2022/01/04 06:22:24;;;;;;;;;27.00;27.00;;;;;4.02;99.62;100181.03;6214731;23;11548;-71
2022/01/04 06:25:21;;;;;;;;;25.25;25.00;;;;;4.10;99.65;100183.09;6192750;23;11506;-71
2022/01/04 06:28:17;;;;;;;;;27.25;27.25;;;;;4.17;99.71;100190.91;6193473;23;11481;-71
2022/01/04 06:31:12;;;;;;;;;27.75;26.75;;;;;4.31;99.41;100197.25;6212400;23;11509;-72
2022/01/04 06:34:08;;;;;;;;;24.25;24.25;;;;;4.28;99.32;100202.50;6213615;23;11508;-71
2022/01/04 06:37:04;;;;;;;;;29.25;27.75;;;;;4.31;99.48;100208.19;6213468;23;11610;-72
2022/01/04 06:40:00;;;;;;;;;37.00;33.75;;;;;4.46;99.16;100196.97;6193802;23;11599;-72
2022/01/04 06:42:56;;;;;;;;;33.00;29.25;;;;;4.53;98.98;100204.78;6212578;23;11508;-72
2022/01/04 06:45:24;;;;;;;;;31.00;29.00;;;;;4.55;98.52;100202.56;6223184;23;11559;-71
2022/01/04 06:48:19;;;;;;;;;26.75;25.50;;;;;4.69;97.98;100208.88;6212522;23;11622;-72
2022/01/04 06:50:47;;;;;;;;;29.00;29.00;;;;;4.72;98.05;100208.25;6214692;23;11529;-72
2022/01/04 06:53:35;;;;;;;;;26.00;25.50;;;;;4.66;98.08;100212.19;6214062;23;11494;-72
2022/01/04 06:56:24;;;;;;;;;24.50;24.50;;;;;4.92;96.98;100218.00;6214404;23;11606;-72
2022/01/04 06:59:19;;;;;;;;;21.00;21.00;;;;;4.82;97.08;100218.19;6212969;23;11520;-73
2022/01/04 07:02:02;;;;;;;;;25.00;24.50;;;;;4.80;97.36;100231.38;6213785;23;11489;-73
2022/01/04 07:04:58;;;;;;;;;24.75;24.75;;;;;4.88;97.30;100232.59;6193179;23;11704;-72
2022/01/04 07:07:54;;;;;;;;;26.00;25.00;;;;;4.88;97.22;100229.88;6213010;23;11525;-75
2022/01/04 07:10:49;;;;;;;;;24.00;24.00;;;;;5.02;96.45;100238.91;6213407;23;11484;-75
2022/01/04 07:13:45;;;;;;;;;27.00;27.00;;;;;5.06;96.22;100239.09;6213276;23;11483;-75
2022/01/04 07:16:40;;;;;;;;;29.25;27.25;;;;;4.99;96.38;100245.00;6213076;23;11498;-75
2022/01/04 07:19:09;;;;;;;;;20.00;20.00;;;;;5.07;95.92;100241.56;6223422;23;11487;-75
2022/01/04 07:22:05;;;;;;;;;24.75;23.75;;;;;5.04;96.13;100242.16;6213322;23;12308;-75
2022/01/04 07:25:01;;;;;;;;;22.00;21.75;;;;;5.12;95.87;100257.06;6213332;23;11482;-75
2022/01/04 07:27:56;;;;;;;;;19.00;19.00;;;;;5.23;96.74;100255.75;6214143;23;11490;-74
2022/01/04 07:30:52;;;;;;;;;29.25;23.75;;;;;6.36;100.00;100265.81;6212306;23;11501;-74
2022/01/04 07:33:35;;;;;;;;;19.75;19.75;;;;;6.00;100.00;100266.72;6213214;23;11546;-73
2022/01/04 07:36:31;;;;;;;;;10.00;10.00;;;;;6.08;100.00;100270.63;6213212;23;12300;-73
2022/01/04 07:39:27;;;;;;;;;18.00;17.75;;;;;6.45;100.00;100263.16;6214350;23;11441;-73
2022/01/04 07:42:23;;;;;;;;;20.75;19.50;;;;;6.57;96.79;100271.63;6213152;23;11595;-74
2022/01/04 07:45:18;;;;;;;;;23.75;23.00;;;;;6.61;94.56;100276.19;6195257;23;11469;-74
2022/01/04 07:48:14;;;;;;;;;22.75;22.75;;;;;6.69;93.43;100278.16;6195279;23;11510;-73
2022/01/04 07:50:42;;;;;;;;;26.50;26.50;;;;;6.95;93.89;100280.22;6223706;23;11541;-73
2022/01/04 07:53:10;;;;;;;;;20.75;20.75;;;;;7.03;93.10;100290.44;6216416;23;11454;-74
2022/01/04 07:56:05;;;;;;;;;18.50;18.50;;;;;7.03;92.84;100295.16;6213832;23;12131;-74
2022/01/04 07:59:01;;;;;;;;;17.25;17.25;;;;;7.07;95.12;100298.91;6195125;23;11438;-74
2022/01/04 08:01:47;;;;;;;;;16.75;16.75;;;;;7.22;96.45;100299.28;6225421;23;11473;-74
2022/01/04 08:04:14;;;;;;;;;15.75;15.75;;;;;7.56;98.10;100296.94;6225366;23;11438;-74
2022/01/04 08:07:10;;;;;;;;;20.00;18.25;;;;;8.31;100.00;100293.78;6216117;23;12275;-74
2022/01/04 08:10:07;;;;;;;;;20.75;19.75;;;;;7.16;92.13;100302.50;6214955;23;11409;-74
2022/01/04 08:13:02;;;;;;;;;17.25;17.25;;;;;7.08;92.90;100295.00;6195060;23;11430;-74
2022/01/04 08:15:58;;;;;;;;;15.75;15.75;;;;;7.98;97.85;100300.91;6213998;23;11490;-74
2022/01/04 08:18:54;;;;;;;;;21.75;21.75;;;;;8.82;98.74;100297.63;6213674;23;11456;-74
2022/01/04 08:21:49;;;;;;;;;22.00;22.00;;;;;8.65;94.49;100311.44;6215236;23;11437;-74
2022/01/04 08:24:17;;;;;;;;;13.75;13.75;;;;;9.38;100.00;100303.91;6189630;23;10997;-74
2022/01/04 08:27:13;;;;;;;;;22.25;22.25;;;;;8.02;85.34;100318.41;6214653;23;11643;-73
2022/01/04 08:30:11;;;;;;;;;25.50;24.00;;;;;7.55;88.33;100306.34;6214466;23;11890;-74
2022/01/04 08:33:06;;;;;;;;;17.25;16.75;;;;;7.91;94.17;100303.34;6214622;23;11244;-73
2022/01/04 08:36:03;;;;;;;;;16.25;16.25;;;;;8.06;94.40;100294.59;6215709;23;11059;-74
2022/01/04 08:38:31;;;;;;;;;26.00;21.25;;;;;7.84;91.11;100294.75;6224806;23;11822;-74
2022/01/04 08:40:59;;;;;;;;;21.25;20.50;;;;;8.09;95.30;100291.19;6215904;23;11059;-74
2022/01/04 08:43:28;;;;;;;;;18.25;18.25;;;;;7.89;92.20;100297.31;6216607;23;11239;-74
2022/01/04 08:45:56;;;;;;;;;18.50;18.50;;;;;7.75;91.44;100301.06;6225156;23;11057;-74
2022/01/04 08:48:24;;;;;;;;;18.50;18.50;;;;;7.41;87.71;100295.44;6224639;23;11225;-74
2022/01/04 08:50:54;;;;;;;;;27.75;26.00;;;;;7.23;86.60;100291.84;6224682;23;11248;-74
2022/01/04 08:53:21;;;;;;;;;18.75;17.50;;;;;10.56;100.00;100284.38;6224488;23;11450;-75
2022/01/04 08:55:49;;;;;;;;;23.25;22.75;;;;;9.03;86.27;100289.44;6215325;23;11103;-74
2022/01/04 08:58:16;;;;;;;;;19.50;19.50;;;;;8.23;86.57;100289.09;6224089;23;11062;-74
2022/01/04 09:01:12;;;;;;;;;24.50;24.50;;;;;8.16;92.03;100293.47;6194118;23;11768;-74
2022/01/04 09:03:53;;;;;;;;;22.00;22.00;;;;;7.37;85.48;100298.03;6216351;23;11209;-77
2022/01/04 09:06:22;;;;;;;;;22.50;21.50;;;;;6.82;86.83;100301.19;6214151;23;11161;-77
2022/01/04 09:09:14;;;;;;;;;20.00;20.00;;;;;6.61;88.49;100305.59;6202680;23;11199;-77
2022/01/04 09:12:11;;;;;;;;;24.00;24.00;;;;;6.51;88.97;100316.81;6213177;23;11442;-77
2022/01/04 09:15:29;;;;;;;;;26.25;26.25;;;;;6.44;88.99;100322.78;6210153;23;11445;-76
2022/01/04 09:20:45;;;;;;;;;30.75;30.75;;;;;6.32;90.15;100328.81;6223053;23;11472;-77
2022/01/04 09:23:18;;;;;;;;;33.00;31.00;;;;;6.25;89.69;100331.19;6222164;23;11543;-76
2022/01/04 09:26:16;;;;;;;;;34.25;28.25;;;;;6.00;90.55;100332.59;6213352;23;12304;-75
2022/01/04 09:29:12;;;;;;;;;30.75;30.50;;;;;5.90;91.50;100329.22;6193597;23;12213;-75
2022/01/04 09:32:13;;;;;;;;;27.25;25.75;;;;;5.87;91.41;100336.13;6212907;23;11526;-75
2022/01/04 09:34:41;;;;;;;;;27.50;26.75;;;;;5.87;90.99;100327.91;6223466;23;11513;-74
2022/01/04 09:37:10;;;;;;;;;26.50;24.50;;;;;5.80;91.44;100331.06;6188567;23;11499;-76
2022/01/04 09:39:51;;;;;;;;;19.00;18.25;;;;;5.76;92.15;100332.00;6191237;23;11606;-74
2022/01/04 09:42:21;;;;;;;;;27.50;27.50;;;;;5.77;92.43;100331.69;6228759;23;11626;-75
2022/01/04 09:44:49;;;;;;;;;24.50;24.50;;;;;5.88;91.52;100328.72;6224727;23;11534;-76
2022/01/04 09:47:18;;;;;;;;;25.25;23.50;;;;;5.93;91.24;100337.69;6247462;23;11494;-76
2022/01/04 09:49:46;;;;;;;;;30.75;28.50;;;;;5.78;91.99;100344.28;6214592;23;12282;-78
2022/01/04 09:52:46;;;;;;;;;35.25;32.00;;;;;5.67;92.21;100348.34;6213861;23;12321;-77
2022/01/04 09:55:42;;;;;;;;;18.00;18.00;;;;;5.66;92.81;100360.44;6211943;23;12272;-77
2022/01/04 09:58:10;;;;;;;;;26.00;24.75;;;;;5.65;93.15;100356.06;6222823;23;11533;-75
2022/01/04 10:00:52;;;;;;;;;27.75;26.00;;;;;5.69;93.05;100359.03;6213887;23;12428;-77
2022/01/04 10:03:29;;;;;;;;;24.25;22.00;;;;;5.44;94.24;100361.16;6223425;23;11590;-77
2022/01/04 10:06:26;;;;;;;;;21.75;21.50;;;;;5.40;94.59;100362.88;6212554;23;11519;-77
2022/01/04 10:09:34;;;;;;;;;18.75;18.75;;;;;5.45;95.11;100362.00;6213840;23;11488;-78
2022/01/04 10:12:10;;;;;;;;;25.00;24.00;;;;;5.37;95.30;100357.19;6223259;23;11538;-76
2022/01/04 10:15:06;;;;;;;;;21.75;21.75;;;;;5.35;95.58;100356.69;6211812;23;11545;-76
2022/01/04 10:18:16;;;;;;;;;18.75;18.25;;;;;5.36;95.83;100350.09;6214227;23;12344;-77
2022/01/04 10:21:14;;;;;;;;;18.75;18.00;;;;;5.37;95.79;100357.19;6214145;23;11531;-76
2022/01/04 10:23:56;;;;;;;;;27.75;26.75;;;;;5.26;96.01;100359.31;6213905;23;11619;-76
2022/01/04 10:26:35;;;;;;;;;30.75;26.00;;;;;5.24;96.34;100356.09;6223361;23;11535;-77
2022/01/04 10:29:20;;;;;;;;;22.00;22.00;;;;;5.21;97.51;100357.50;6223041;23;11538;-75
2022/01/04 10:31:47;;;;;;;;;24.50;23.50;;;;;5.24;97.67;100354.16;6223033;23;11535;-76
2022/01/04 10:34:47;;;;;;;;;30.50;27.00;;;;;5.30;96.98;100341.97;6213728;23;11566;-76
2022/01/04 10:37:43;;;;;;;;;18.75;18.50;;;;;5.16;97.67;100348.56;6214377;23;11547;-76
2022/01/04 10:40:42;;;;;;;;;17.75;17.75;;;;;5.15;98.12;100350.50;6230997;23;11544;-76
2022/01/04 10:43:43;;;;;;;;;23.00;23.00;;;;;5.24;98.53;100353.34;6214489;23;12271;-77
2022/01/04 10:46:43;;;;;;;;;18.50;18.00;;;;;5.11;99.07;100354.94;6213953;23;11706;-76
2022/01/04 10:49:42;;;;;;;;;18.25;17.50;;;;;5.16;99.13;100356.78;6213962;23;11515;-77
2022/01/04 10:52:37;;;;;;;;;25.75;25.75;;;;;5.12;99.00;100356.56;6214219;23;11515;-76
2022/01/04 10:55:13;;;;;;;;;24.25;23.25;;;;;5.13;98.78;100369.16;6223004;23;11526;-77
2022/01/04 10:58:19;;;;;;;;;21.25;21.25;;;;;5.11;98.98;100367.84;6212003;23;11547;-76
2022/01/04 11:01:21;;;;;;;;;19.25;19.25;;;;;5.13;99.05;100371.06;6211585;23;11558;-76
2022/01/04 11:03:53;;;;;;;;;26.50;26.50;;;;;5.13;99.37;100368.34;6211602;23;11532;-75
2022/01/04 11:06:28;;;;;;;;;28.00;27.25;;;;;5.11;99.45;100382.34;6222826;23;11630;-75
2022/01/04 11:08:57;;;;;;;;;26.00;26.00;;;;;5.30;99.33;100371.31;6246481;23;11524;-75
2022/01/04 11:11:52;;;;;;;;;26.75;26.75;;;;;5.28;98.79;100376.28;6211586;23;11543;-75
2022/01/04 11:14:48;;;;;;;;;28.75;28.75;;;;;5.27;99.13;100380.94;6213752;23;11548;-74
2022/01/04 11:17:30;;;;;;;;;29.75;29.25;;;;;5.24;99.29;100391.72;6213017;23;11617;-75
2022/01/04 11:20:26;;;;;;;;;25.25;25.25;;;;;5.30;98.34;100387.78;6214573;23;11547;-76
2022/01/04 11:23:31;;;;;;;;;21.00;18.50;;;;;5.25;99.16;100388.66;6215768;23;11518;-76
2022/01/04 11:26:27;;;;;;;;;33.50;33.50;;;;;5.32;99.08;100396.50;6214092;23;12240;-76
2022/01/04 11:29:28;;;;;;;;;30.00;27.25;;;;;5.28;98.82;100403.69;6215872;23;11561;-76
2022/01/04 11:32:21;;;;;;;;;35.00;32.50;;;;;5.23;98.84;100406.56;6215869;23;11544;-76
2022/01/04 11:35:21;;;;;;;;;30.50;30.00;;;;;5.30;99.15;100412.47;6215436;23;11633;-75
2022/01/04 11:37:57;;;;;;;;;31.75;31.75;;;;;5.49;98.55;100412.38;6225320;23;11649;-76
2022/01/04 11:40:35;;;;;;;;;30.00;29.50;;;;;5.54;97.59;100418.56;6224941;23;11596;-75
2022/01/04 11:43:28;;;;;;;;;31.50;29.75;;;;;5.69;96.82;100416.66;6214961;23;11568;-75
2022/01/04 11:45:56;;;;;;;;;25.50;25.00;;;;;5.81;96.43;100419.69;6225493;23;11523;-75
2022/01/04 11:48:25;;;;;;;;;20.00;20.00;;;;;5.82;95.97;100416.63;6224979;23;11600;-75
2022/01/04 11:50:57;;;;;;;;;12.50;11.75;;;;;5.86;96.09;100425.88;6215093;23;11571;-75
2022/01/04 11:53:25;;;;;;;;;18.50;18.50;;;;;5.88;95.33;100428.31;6214677;23;11640;-76
2022/01/04 11:56:02;;;;;;;;;19.50;19.50;;;;;5.75;95.21;100432.72;6225233;23;11522;-75
2022/01/04 11:58:52;;;;;;;;;22.75;22.75;;;;;5.77;94.88;100430.47;6225055;23;11570;-75
2022/01/04 12:01:27;;;;;;;;;19.25;19.25;;;;;5.79;95.18;100438.41;6248577;23;11547;-75
2022/01/04 12:03:57;;;;;;;;;22.00;19.25;;;;;5.77;94.81;100444.19;6216212;23;11585;-74
2022/01/04 12:06:41;;;;;;;;;25.00;25.00;;;;;5.77;94.87;100440.63;6216474;23;11558;-75
2022/01/04 12:09:25;;;;;;;;;21.25;21.25;;;;;5.83;94.45;100447.66;6225049;23;11565;-75
2022/01/04 12:11:53;;;;;;;;;25.75;25.75;;;;;5.84;94.70;100454.78;6216017;23;11651;-75
2022/01/04 12:14:41;;;;;;;;;20.25;19.25;;;;;5.82;94.29;100457.78;6216027;23;11529;-75
2022/01/04 12:17:12;;;;;;;;;19.00;16.75;;;;;5.80;94.09;100464.72;6225078;23;11549;-75
2022/01/04 12:20:00;;;;;;;;;23.00;23.00;;;;;5.78;94.02;100459.53;6215056;23;11561;-75
2022/01/04 12:22:30;;;;;;;;;18.75;18.75;;;;;5.78;94.21;100464.22;6248526;23;12132;-75
2022/01/04 12:25:18;;;;;;;;;20.25;20.25;;;;;5.72;93.72;100465.41;6216674;23;11528;-76
2022/01/04 12:28:14;;;;;;;;;22.00;22.00;;;;;5.67;94.11;100460.03;6224944;23;11521;-76
2022/01/04 12:30:43;;;;;;;;;17.50;17.50;;;;;5.70;94.07;100467.66;6224982;23;11519;-75
2022/01/04 12:33:57;;;;;;;;;20.00;20.00;;;;;5.64;94.50;100474.34;6224956;23;11598;-74
2022/01/04 12:36:35;;;;;;;;;26.75;24.25;;;;;5.73;94.43;100478.84;6212422;23;11579;-76
2022/01/04 12:39:20;;;;;;;;;26.75;24.25;;;;;5.72;93.33;100481.88;6240009;23;11574;-77
2022/01/04 12:41:54;;;;;;;;;26.75;26.75;;;;;5.73;93.79;100483.50;6215791;23;12197;-75
2022/01/04 12:44:27;;;;;;;;;28.50;24.25;;;;;5.77;93.68;100484.53;6224166;23;11586;-76
2022/01/04 12:47:26;;;;;;;;;22.75;22.75;;;;;5.76;93.56;100497.44;6214874;23;11577;-74
2022/01/04 12:50:24;;;;;;;;;26.25;26.25;;;;;5.71;93.00;100500.28;6213932;23;11506;-75
2022/01/04 12:53:35;;;;;;;;;25.75;25.75;;;;;5.64;93.33;100505.34;6212953;23;11510;-74
2022/01/04 12:56:30;;;;;;;;;25.75;24.25;;;;;5.65;93.54;100503.41;6214426;23;11515;-75
2022/01/04 12:59:22;;;;;;;;;18.50;18.50;;;;;5.63;93.98;100509.22;6216544;23;11484;-75
2022/01/04 13:02:07;;;;;;;;;26.00;25.25;;;;;5.61;93.95;100505.16;6214266;23;11554;-74
2022/01/04 13:04:39;;;;;;;;;22.50;22.50;;;;;5.58;93.97;100509.28;6224410;23;12290;-74
2022/01/04 13:07:39;;;;;;;;;18.00;18.00;;;;;5.52;93.81;100507.75;6212960;23;11532;-74
2022/01/04 13:10:11;;;;;;;;;23.75;23.50;;;;;5.49;94.13;100511.91;6222593;23;11567;-74
2022/01/04 13:12:59;;;;;;;;;26.00;23.50;;;;;5.66;93.95;100510.53;6213480;23;11503;-74